Time;durP1;ratioP1;P1;durP2;ratioP2;P2;SDS_P1;SDS_P2;PMS_P1;PMS_P2;Temp;Humidity;BMP_temperature;BMP_pressure;BME280_temperature;BME280_humidity;BME280_pressure;Samples;Min_cycle;Max_cycle;Signal;HPM_P1;HPM_P2
2023/06/05 00:01:12;;;;;;;9.63;4.15;;;12.80;99.90;;;;;;5093855;28;20075;-86
2023/06/05 00:03:39;;;;;;;9.95;4.07;;;12.80;99.90;;;;;;5112053;28;20071;-86
2023/06/05 00:06:06;;;;;;;10.13;3.72;;;12.70;99.90;;;;;;5112984;28;20039;-85
2023/06/05 00:08:32;;;;;;;9.88;4.30;;;12.60;99.90;;;;;;5113003;28;20036;-85
2023/06/05 00:10:57;;;;;;;9.45;4.28;;;12.60;99.90;;;;;;5111408;28;20515;-85
2023/06/05 00:13:23;;;;;;;9.88;4.60;;;12.60;99.90;;;;;;5111761;28;20082;-85
2023/06/05 00:15:50;;;;;;;11.23;4.60;;;12.50;99.90;;;;;;5111422;28;20067;-85
2023/06/05 00:18:17;;;;;;;10.43;6.72;;;12.50;99.90;;;;;;5111523;28;20082;-85
2023/06/05 00:20:43;;;;;;;10.27;3.83;;;12.60;99.90;;;;;;5111395;28;20047;-85
2023/06/05 00:23:11;;;;;;;9.65;3.97;;;12.50;99.90;;;;;;5111439;28;20602;-85
2023/06/05 00:25:37;;;;;;;10.40;4.65;;;12.40;99.90;;;;;;5111319;28;20052;-85
2023/06/05 00:28:02;;;;;;;8.23;3.83;;;12.40;99.90;;;;;;5111209;28;20040;-85
2023/06/05 00:30:28;;;;;;;9.35;7.00;;;12.30;99.90;;;;;;5111017;28;20070;-85
2023/06/05 00:32:53;;;;;;;9.40;4.18;;;12.40;99.90;;;;;;5111279;28;20051;-85
2023/06/05 00:35:19;;;;;;;9.20;3.97;;;12.30;99.90;;;;;;5111201;28;20047;-85
2023/06/05 00:37:46;;;;;;;9.75;4.35;;;12.30;99.90;;;;;;5111182;28;20039;-86
2023/06/05 00:40:12;;;;;;;13.57;4.38;;;12.20;99.90;;;;;;5110829;28;20046;-86
2023/06/05 00:42:38;;;;;;;11.77;7.65;;;12.20;99.90;;;;;;5111238;28;20047;-86
2023/06/05 00:45:04;;;;;;;9.40;4.22;;;12.30;99.90;;;;;;5111152;28;20481;-86
2023/06/05 00:47:31;;;;;;;9.13;4.38;;;12.20;99.90;;;;;;5111119;28;20059;-86
2023/06/05 00:49:57;;;;;;;11.43;4.53;;;12.10;99.90;;;;;;5110849;28;20070;-86
2023/06/05 00:52:24;;;;;;;9.95;4.13;;;12.10;99.90;;;;;;5111200;28;20509;-86
2023/06/05 00:54:50;;;;;;;11.23;5.05;;;12.10;99.90;;;;;;5110937;28;20450;-86
2023/06/05 00:57:16;;;;;;;11.60;4.45;;;12.10;99.90;;;;;;5110702;28;20108;-86
2023/06/05 00:59:44;;;;;;;9.38;4.38;;;12.00;99.90;;;;;;5110561;28;20035;-86
2023/06/05 01:02:12;;;;;;;11.50;4.40;;;12.00;99.90;;;;;;5111217;28;20123;-86
2023/06/05 01:04:43;;;;;;;9.95;4.82;;;12.00;99.90;;;;;;5110874;28;20039;-86
2023/06/05 01:07:10;;;;;;;13.90;4.55;;;11.90;99.90;;;;;;5110874;28;20062;-86
2023/06/05 01:09:37;;;;;;;11.73;7.95;;;11.90;99.90;;;;;;5110584;28;20051;-86
2023/06/05 01:12:05;;;;;;;9.93;4.97;;;12.00;99.90;;;;;;5094761;28;20049;-86
2023/06/05 01:14:35;;;;;;;12.15;4.18;;;12.00;99.90;;;;;;5115095;28;20092;-86
2023/06/05 01:17:03;;;;;;;11.13;4.60;;;11.90;99.90;;;;;;5114920;28;20095;-86
2023/06/05 01:19:31;;;;;;;9.75;4.63;;;11.80;99.90;;;;;;5115883;28;20177;-86
2023/06/05 01:22:01;;;;;;;11.23;4.50;;;11.80;99.90;;;;;;5115116;28;20453;-86
2023/06/05 01:24:27;;;;;;;11.60;4.63;;;11.70;99.90;;;;;;5116247;28;20047;-86
2023/06/05 01:27:12;;;;;;;12.07;5.10;;;11.70;99.90;;;;;;5114689;28;20497;-86
2023/06/05 01:29:56;;;;;;;10.45;4.97;;;11.60;99.90;;;;;;5114463;28;20082;-86
2023/06/05 01:32:56;;;;;;;11.10;4.88;;;11.60;99.90;;;;;;5114939;28;20130;-86
2023/06/05 01:35:27;;;;;;;13.63;9.40;;;11.60;99.90;;;;;;5103693;28;20078;-86
2023/06/05 01:37:55;;;;;;;13.93;8.77;;;11.60;99.90;;;;;;5114627;28;20055;-86
2023/06/05 01:40:24;;;;;;;13.85;5.35;;;11.70;99.90;;;;;;5097245;28;20039;-86
2023/06/05 01:42:51;;;;;;;10.88;5.00;;;11.60;99.90;;;;;;5115711;28;20408;-86
2023/06/05 01:45:17;;;;;;;9.90;4.80;;;11.60;99.90;;;;;;5115790;28;20438;-86
2023/06/05 01:47:45;;;;;;;10.43;5.40;;;11.50;99.90;;;;;;5114646;28;20036;-86
2023/06/05 01:50:14;;;;;;;10.15;4.60;;;11.50;99.90;;;;;;5113927;28;20039;-86
2023/06/05 01:52:41;;;;;;;12.90;4.70;;;11.40;99.90;;;;;;5114660;28;20396;-86
2023/06/05 01:55:15;;;;;;;11.35;5.25;;;11.40;99.90;;;;;;5097242;28;20059;-86
2023/06/05 01:57:43;;;;;;;10.32;4.85;;;11.40;99.90;;;;;;5114248;28;20100;-86
2023/06/05 02:00:13;;;;;;;12.18;4.90;;;11.30;99.90;;;;;;5113817;28;20512;-86
2023/06/05 02:02:42;;;;;;;11.75;5.28;;;11.30;99.90;;;;;;5114431;28;20115;-86
2023/06/05 02:05:09;;;;;;;12.60;5.47;;;11.20;99.90;;;;;;5114291;28;20366;-86
2023/06/05 02:07:39;;;;;;;10.65;5.30;;;11.20;99.90;;;;;;5114108;28;20148;-86
2023/06/05 02:10:09;;;;;;;10.55;5.63;;;11.10;99.90;;;;;;5113845;28;20114;-86
2023/06/05 02:12:41;;;;;;;13.75;5.55;;;11.10;99.90;;;;;;5115253;28;20039;-86
2023/06/05 02:15:08;;;;;;;13.10;10.25;;;11.00;99.90;;;;;;5114006;28;20497;-86
2023/06/05 02:17:34;;;;;;;11.50;5.45;;;11.10;99.90;;;;;;5113807;28;20114;-86
2023/06/05 02:20:00;;;;;;;10.50;5.05;;;11.00;99.90;;;;;;5113423;28;20123;-86
2023/06/05 02:22:25;;;;;;;14.95;6.45;;;11.00;99.90;;;;;;5113244;28;20123;-86
2023/06/05 02:24:51;;;;;;;12.00;6.03;;;10.90;99.90;;;;;;5096700;28;20043;-86
2023/06/05 02:27:17;;;;;;;13.43;5.75;;;10.90;99.90;;;;;;5113620;28;20036;-86
2023/06/05 02:29:43;;;;;;;11.43;5.82;;;10.90;99.90;;;;;;5096341;28;20040;-86
2023/06/05 02:32:10;;;;;;;12.57;6.18;;;10.90;99.90;;;;;;5113847;28;20096;-86
2023/06/05 02:34:36;;;;;;;12.00;5.32;;;10.80;99.90;;;;;;5113510;28;20043;-86
2023/06/05 02:37:02;;;;;;;14.02;5.57;;;10.90;99.90;;;;;;5113410;28;20040;-86
2023/06/05 02:39:30;;;;;;;11.48;5.15;;;10.80;99.90;;;;;;5114338;28;20445;-86
2023/06/05 02:41:56;;;;;;;18.13;5.50;;;10.80;99.90;;;;;;5113678;28;20517;-86
2023/06/05 02:44:22;;;;;;;14.80;5.75;;;10.80;99.90;;;;;;5113315;28;20039;-86
2023/06/05 02:46:48;;;;;;;9.98;5.03;;;10.80;99.90;;;;;;5113356;28;20036;-86
2023/06/05 02:49:14;;;;;;;11.10;4.32;;;10.80;99.90;;;;;;5096055;28;20043;-86
2023/06/05 02:51:39;;;;;;;16.00;6.13;;;10.70;99.90;;;;;;5095891;28;20043;-86
2023/06/05 02:54:05;;;;;;;11.70;5.72;;;10.70;99.90;;;;;;5096352;28;20036;-86
2023/06/05 02:56:31;;;;;;;12.63;5.60;;;10.70;99.90;;;;;;5095918;28;20435;-85
2023/06/05 02:58:56;;;;;;;13.07;5.65;;;10.70;99.90;;;;;;5096039;28;20078;-86
2023/06/05 03:01:25;;;;;;;12.15;5.72;;;10.70;99.90;;;;;;5114011;28;20092;-85
2023/06/05 03:03:53;;;;;;;12.32;5.88;;;10.70;99.90;;;;;;5095879;28;20054;-85
2023/06/05 03:06:18;;;;;;;11.98;6.00;;;10.70;99.90;;;;;;5095786;28;20044;-86
2023/06/05 03:08:45;;;;;;;12.90;5.00;;;10.70;99.90;;;;;;5095814;28;20419;-86
2023/06/05 03:11:10;;;;;;;13.73;11.23;;;10.60;99.90;;;;;;5095307;28;20496;-86
2023/06/05 03:13:36;;;;;;;12.02;5.38;;;10.70;99.90;;;;;;5095817;28;20104;-86
2023/06/05 03:16:02;;;;;;;11.02;5.65;;;10.70;99.90;;;;;;5095860;28;20487;-86
2023/06/05 03:18:28;;;;;;;11.02;5.50;;;10.60;99.90;;;;;;5113926;28;20393;-85
2023/06/05 03:20:56;;;;;;;13.25;5.68;;;10.60;99.90;;;;;;5095110;28;20485;-86
2023/06/05 03:23:23;;;;;;;15.73;6.13;;;10.50;99.90;;;;;;5095539;28;20545;-86
2023/06/05 03:25:49;;;;;;;11.48;5.38;;;10.50;99.90;;;;;;5095333;28;20131;-86
2023/06/05 03:28:15;;;;;;;11.13;5.25;;;10.40;99.90;;;;;;5095450;28;20055;-86
2023/06/05 03:30:41;;;;;;;10.68;5.03;;;10.40;99.90;;;;;;5095131;28;20044;-86
2023/06/05 03:33:07;;;;;;;12.95;5.63;;;10.30;99.90;;;;;;5078472;28;20050;-86
2023/06/05 03:35:32;;;;;;;10.52;4.80;;;10.30;99.90;;;;;;5094649;28;20105;-86
2023/06/05 03:37:59;;;;;;;11.60;4.38;;;10.20;99.90;;;;;;5113573;28;20040;-86
2023/06/05 03:40:24;;;;;;;10.77;4.55;;;10.20;99.90;;;;;;5094890;28;20046;-86
2023/06/05 03:42:50;;;;;;;10.48;5.57;;;10.20;99.90;;;;;;5095192;28;20043;-86
2023/06/05 03:45:16;;;;;;;11.40;4.43;;;10.20;99.90;;;;;;5095187;28;20050;-86
2023/06/05 03:47:43;;;;;;;9.75;4.70;;;10.10;99.90;;;;;;5095032;28;20036;-86
2023/06/05 03:50:10;;;;;;;11.13;4.80;;;10.10;99.90;;;;;;5094653;28;20043;-86
2023/06/05 03:52:39;;;;;;;12.50;4.88;;;10.20;99.90;;;;;;5078170;28;20040;-86
2023/06/05 03:55:07;;;;;;;12.48;4.85;;;10.10;99.90;;;;;;5094889;28;20073;-86
2023/06/05 03:57:33;;;;;;;11.40;4.82;;;10.10;99.90;;;;;;5094783;28;20097;-86
2023/06/05 03:59:59;;;;;;;9.73;4.10;;;10.20;99.90;;;;;;5112832;28;20131;-86
2023/06/05 04:02:25;;;;;;;10.93;5.00;;;10.10;99.90;;;;;;5094788;28;20067;-86
2023/06/05 04:04:51;;;;;;;10.35;4.57;;;10.20;99.90;;;;;;5112982;28;20046;-86
2023/06/05 04:07:17;;;;;;;14.43;5.18;;;10.20;99.90;;;;;;5094859;28;20048;-85
2023/06/05 04:09:42;;;;;;;12.48;4.57;;;10.20;99.90;;;;;;5112608;28;20103;-86
2023/06/05 04:12:10;;;;;;;11.55;4.57;;;10.30;99.90;;;;;;5094614;28;20040;-86
2023/06/05 04:14:36;;;;;;;10.82;4.25;;;10.30;99.90;;;;;;5094631;28;20057;-86
2023/06/05 04:17:02;;;;;;;10.63;4.75;;;10.30;99.90;;;;;;5094404;28;20043;-86
2023/06/05 04:19:28;;;;;;;11.85;4.22;;;10.30;99.90;;;;;;5077338;28;20047;-86
2023/06/05 04:21:54;;;;;;;10.82;5.07;;;10.40;99.90;;;;;;5094811;28;20036;-86
2023/06/05 04:24:20;;;;;;;9.50;4.50;;;10.40;99.90;;;;;;5094521;28;20078;-86
2023/06/05 04:26:47;;;;;;;10.55;4.40;;;10.50;99.90;;;;;;5094492;28;20039;-86
2023/06/05 04:29:16;;;;;;;10.57;4.20;;;10.50;99.90;;;;;;5094376;28;20148;-86
2023/06/05 04:31:50;;;;;;;11.43;4.38;;;10.60;99.90;;;;;;5094166;28;20047;-86
2023/06/05 04:34:18;;;;;;;10.18;4.50;;;10.60;99.90;;;;;;5112636;28;20110;-86
2023/06/05 04:36:43;;;;;;;13.45;4.72;;;10.60;99.90;;;;;;5094216;28;20124;-86
2023/06/05 04:39:16;;;;;;;11.25;4.25;;;10.70;99.90;;;;;;5094139;28;20066;-86
2023/06/05 04:41:46;;;;;;;12.80;4.40;;;10.70;99.90;;;;;;5094065;28;20044;-86
2023/06/05 04:44:18;;;;;;;12.73;8.63;;;10.70;99.90;;;;;;5094349;28;20053;-86
2023/06/05 04:46:45;;;;;;;10.05;4.88;;;10.80;99.90;;;;;;5112260;28;20047;-86
2023/06/05 04:49:16;;;;;;;10.73;4.95;;;10.90;99.90;;;;;;5093975;28;20055;-86
2023/06/05 04:51:43;;;;;;;10.05;4.47;;;10.90;99.90;;;;;;5093783;28;20100;-86
2023/06/05 04:54:10;;;;;;;10.57;4.75;;;10.90;99.90;;;;;;5093971;28;20073;-86
2023/06/05 04:56:39;;;;;;;12.75;5.45;;;11.00;99.90;;;;;;5093968;28;20046;-86
2023/06/05 04:59:04;;;;;;;9.88;4.43;;;11.10;99.90;;;;;;5093945;28;20043;-86
2023/06/05 05:01:30;;;;;;;10.45;4.95;;;11.10;99.90;;;;;;5093837;28;20085;-86
2023/06/05 05:03:56;;;;;;;9.60;4.20;;;11.20;99.90;;;;;;5093974;28;20505;-85
2023/06/05 05:06:22;;;;;;;12.80;4.82;;;11.20;99.90;;;;;;5077093;28;20042;-86
2023/06/05 05:08:48;;;;;;;11.07;4.70;;;11.30;99.90;;;;;;5093929;28;20043;-86
2023/06/05 05:11:15;;;;;;;11.18;7.97;;;11.30;99.90;;;;;;5111547;28;20032;-86
2023/06/05 05:13:41;;;;;;;12.02;5.07;;;11.50;99.90;;;;;;5093846;28;20457;-86
2023/06/05 05:16:10;;;;;;;13.02;4.80;;;11.50;99.90;;;;;;5093624;28;20497;-86
2023/06/05 05:18:39;;;;;;;13.52;5.15;;;11.50;99.90;;;;;;5093779;28;20047;-86
2023/06/05 05:21:05;;;;;;;14.13;5.13;;;11.60;99.90;;;;;;5093424;28;20088;-86
2023/06/05 05:23:32;;;;;;;14.70;4.80;;;11.60;99.90;;;;;;5093715;28;20482;-86
2023/06/05 05:25:58;;;;;;;9.15;4.10;;;11.70;99.90;;;;;;5093443;28;20043;-86
2023/06/05 05:28:23;;;;;;;9.23;4.63;;;11.70;99.90;;;;;;5093910;28;20053;-86
2023/06/05 05:30:51;;;;;;;12.70;4.95;;;11.80;99.90;;;;;;5076463;28;20074;-86
2023/06/05 05:33:17;;;;;;;11.88;4.25;;;11.90;99.90;;;;;;5093663;28;20493;-86
2023/06/05 05:35:43;;;;;;;9.57;4.22;;;11.90;99.90;;;;;;5093737;28;20408;-86
2023/06/05 05:38:09;;;;;;;11.63;4.28;;;12.00;99.90;;;;;;5111972;28;20040;-86
2023/06/05 05:40:35;;;;;;;12.68;8.25;;;12.10;99.90;;;;;;5093300;28;20092;-86
2023/06/05 05:43:00;;;;;;;10.85;4.90;;;12.20;99.90;;;;;;5093776;28;20032;-86
2023/06/05 05:45:26;;;;;;;10.80;4.95;;;12.30;99.90;;;;;;5093543;28;20048;-86
2023/06/05 05:47:52;;;;;;;10.18;4.32;;;12.30;99.90;;;;;;5111756;28;20128;-86
2023/06/05 05:50:17;;;;;;;10.10;4.97;;;12.40;99.90;;;;;;5093215;28;20036;-87
2023/06/05 05:52:44;;;;;;;12.85;5.28;;;12.40;99.90;;;;;;5093625;28;20093;-86
2023/06/05 05:55:10;;;;;;;11.88;7.80;;;12.50;99.90;;;;;;5111669;28;20040;-86
2023/06/05 05:57:36;;;;;;;9.95;5.10;;;12.60;99.90;;;;;;5093673;28;20039;-87
2023/06/05 06:00:12;;;;;;;10.23;4.40;;;12.70;99.90;;;;;;5096885;28;20550;-86
2023/06/05 06:02:38;;;;;;;12.63;4.60;;;12.70;99.90;;;;;;5097478;28;20043;-87
2023/06/05 06:05:05;;;;;;;10.35;5.22;;;12.80;99.90;;;;;;5115509;28;20078;-86
2023/06/05 06:07:31;;;;;;;10.98;5.05;;;12.80;99.90;;;;;;5115384;28;20051;-86
2023/06/05 06:09:58;;;;;;;13.32;8.10;;;12.90;99.90;;;;;;5096897;28;20055;-86
2023/06/05 06:12:24;;;;;;;10.57;5.18;;;13.00;99.90;;;;;;5115262;28;20050;-86
2023/06/05 06:14:50;;;;;;;11.23;8.40;;;13.10;99.90;;;;;;5097225;28;20110;-86
2023/06/05 06:17:16;;;;;;;11.60;8.85;;;13.20;99.90;;;;;;5096939;28;20473;-86
2023/06/05 06:19:42;;;;;;;12.05;4.90;;;13.30;99.90;;;;;;5096776;28;20043;-86
2023/06/05 06:22:11;;;;;;;9.73;4.88;;;13.30;99.90;;;;;;5096790;28;20507;-87
2023/06/05 06:24:39;;;;;;;13.82;5.38;;;13.40;99.90;;;;;;5097012;28;20067;-86
2023/06/05 06:27:04;;;;;;;12.75;7.93;;;13.40;99.90;;;;;;5096992;27;20039;-86
2023/06/05 06:29:31;;;;;;;9.85;5.18;;;13.60;99.90;;;;;;5129710;27;20511;-86
2023/06/05 06:31:57;;;;;;;15.45;8.68;;;13.70;99.90;;;;;;5117085;27;20496;-86
2023/06/05 06:34:24;;;;;;;13.10;5.15;;;13.80;99.90;;;;;;5117027;27;20039;-86
2023/06/05 06:36:50;;;;;;;12.07;5.30;;;13.90;99.90;;;;;;5116762;27;20043;-86
2023/06/05 06:39:17;;;;;;;9.13;4.75;;;13.90;99.90;;;;;;5117206;27;20114;-86
2023/06/05 06:41:44;;;;;;;12.05;5.28;;;13.90;99.90;;;;;;5116708;27;20119;-86
2023/06/05 06:44:10;;;;;;;12.23;5.55;;;14.00;99.90;;;;;;5135210;27;20114;-85
2023/06/05 06:46:36;;;;;;;11.95;5.68;;;14.10;99.90;;;;;;5116870;27;20114;-87
2023/06/05 06:49:02;;;;;;;10.00;6.93;;;14.10;99.90;;;;;;5135015;27;20042;-86
2023/06/05 06:51:28;;;;;;;10.60;5.18;;;14.20;99.90;;;;;;5134856;27;20035;-86
2023/06/05 06:53:53;;;;;;;9.85;5.18;;;14.20;99.90;;;;;;5112586;27;20046;-86
2023/06/05 06:56:19;;;;;;;10.80;7.18;;;14.30;99.90;;;;;;5105397;27;20059;-86
2023/06/05 06:58:45;;;;;;;10.90;5.13;;;14.40;99.90;;;;;;5116565;27;20164;-86
2023/06/05 07:01:11;;;;;;;13.43;5.90;;;14.40;99.90;;;;;;5116213;27;20063;-86
2023/06/05 07:03:38;;;;;;;11.32;7.32;;;14.50;99.90;;;;;;5116284;27;20126;-86
2023/06/05 07:06:03;;;;;;;13.45;8.45;;;14.60;99.90;;;;;;5116337;27;20039;-86
2023/06/05 07:08:29;;;;;;;9.32;5.07;;;14.70;99.90;;;;;;5134734;27;20115;-86
2023/06/05 07:10:55;;;;;;;11.30;4.65;;;14.80;99.90;;;;;;5115896;27;20446;-86
2023/06/05 07:13:21;;;;;;;9.38;4.50;;;14.80;99.90;;;;;;5116345;27;20039;-86
2023/06/05 07:15:47;;;;;;;12.65;5.18;;;14.90;99.90;;;;;;5116170;27;20047;-86
2023/06/05 07:18:13;;;;;;;9.35;6.43;;;14.90;99.90;;;;;;5116271;27;20103;-86
2023/06/05 07:20:39;;;;;;;11.00;7.00;;;15.10;99.90;;;;;;5115665;27;20071;-86
2023/06/05 07:23:05;;;;;;;10.18;6.97;;;15.20;99.90;;;;;;5116033;27;20102;-86
2023/06/05 07:25:31;;;;;;;11.35;5.38;;;15.30;99.90;;;;;;5115952;27;20412;-86
2023/06/05 07:27:59;;;;;;;11.93;7.38;;;15.40;99.90;;;;;;5098124;27;20046;-86
2023/06/05 07:30:26;;;;;;;9.40;4.60;;;15.40;99.90;;;;;;5133247;27;20061;-86
2023/06/05 07:32:52;;;;;;;11.27;5.22;;;15.50;99.90;;;;;;5114464;27;20074;-86
2023/06/05 07:35:17;;;;;;;10.88;6.55;;;15.50;99.90;;;;;;5115834;27;20456;-86
2023/06/05 07:37:43;;;;;;;10.90;6.60;;;15.60;99.90;;;;;;5098676;27;20043;-86
2023/06/05 07:40:10;;;;;;;9.27;5.20;;;15.70;99.90;;;;;;5098360;27;20036;-86
2023/06/05 07:42:35;;;;;;;12.65;5.30;;;15.80;99.90;;;;;;5134103;27;20381;-86
2023/06/05 07:45:01;;;;;;;9.90;6.03;;;15.80;99.90;;;;;;5115542;27;20510;-86
2023/06/05 07:47:27;;;;;;;8.55;4.35;;;15.90;99.90;;;;;;5115552;27;20049;-87
2023/06/05 07:50:00;;;;;;;10.75;6.40;;;16.00;99.90;;;;;;5115337;27;20122;-86
2023/06/05 07:52:27;;;;;;;8.90;4.13;;;16.00;99.90;;;;;;5133920;27;20455;-86
2023/06/05 07:54:53;;;;;;;9.23;4.57;;;16.10;99.90;;;;;;5115275;27;20504;-86
2023/06/05 07:57:19;;;;;;;10.85;5.75;;;16.10;99.90;;;;;;5115221;27;20050;-86
2023/06/05 07:59:46;;;;;;;10.13;6.13;;;16.20;99.90;;;;;;5115243;27;20082;-86
2023/06/05 08:02:12;;;;;;;10.00;6.32;;;16.30;99.90;;;;;;5115110;27;20074;-86
2023/06/05 08:04:39;;;;;;;9.00;5.50;;;16.40;99.90;;;;;;5115259;27;20074;-86
2023/06/05 08:07:05;;;;;;;8.18;4.10;;;16.50;99.90;;;;;;5115307;27;20047;-86
2023/06/05 08:09:30;;;;;;;10.98;6.18;;;16.50;99.90;;;;;;5115108;27;20086;-86
2023/06/05 08:11:56;;;;;;;10.35;6.00;;;16.50;99.90;;;;;;5115564;27;20074;-86
2023/06/05 08:14:21;;;;;;;9.48;5.78;;;16.70;99.90;;;;;;5115302;27;20055;-87
2023/06/05 08:16:47;;;;;;;11.57;6.40;;;16.70;99.90;;;;;;5097964;27;20038;-86
2023/06/05 08:19:14;;;;;;;11.38;6.25;;;16.80;99.90;;;;;;5115190;27;20131;-86
2023/06/05 08:21:40;;;;;;;9.15;4.60;;;16.90;99.90;;;;;;5114294;27;20083;-86
2023/06/05 08:24:06;;;;;;;12.00;5.90;;;17.00;99.90;;;;;;5114845;27;20047;-86
2023/06/05 08:26:32;;;;;;;10.90;6.38;;;17.00;99.90;;;;;;5097691;27;20035;-87
2023/06/05 08:28:57;;;;;;;10.65;6.15;;;17.20;99.90;;;;;;5114651;27;20047;-86
2023/06/05 08:31:23;;;;;;;10.10;5.50;;;17.20;99.90;;;;;;5132716;27;20058;-86
2023/06/05 08:33:49;;;;;;;10.55;6.07;;;17.30;99.90;;;;;;5114767;27;20091;-86
2023/06/05 08:36:16;;;;;;;9.80;6.05;;;17.40;99.90;;;;;;5114736;27;20070;-86
2023/06/05 08:38:42;;;;;;;10.88;5.70;;;17.50;99.90;;;;;;5133073;27;20043;-86
2023/06/05 08:41:10;;;;;;;10.10;5.85;;;17.50;99.80;;;;;;5097467;27;20035;-86
2023/06/05 08:43:37;;;;;;;12.27;7.45;;;17.60;99.90;;;;;;5114665;27;20106;-86
2023/06/05 08:46:08;;;;;;;12.32;5.80;;;17.70;99.10;;;;;;5114491;27;20176;-86
2023/06/05 08:48:41;;;;;;;9.70;5.43;;;17.70;98.60;;;;;;5114456;27;20070;-86
2023/06/05 08:51:09;;;;;;;12.00;6.13;;;17.80;98.00;;;;;;5114590;27;20653;-86
2023/06/05 08:53:35;;;;;;;9.82;5.15;;;17.90;97.80;;;;;;5114393;27;20400;-86
2023/06/05 08:56:01;;;;;;;9.75;5.05;;;18.00;97.80;;;;;;5114290;27;20077;-86
2023/06/05 08:58:27;;;;;;;11.48;5.30;;;18.10;96.90;;;;;;5114139;27;20067;-86
2023/06/05 09:00:53;;;;;;;10.55;5.05;;;18.20;96.30;;;;;;5097354;28;20050;-86
2023/06/05 09:03:20;;;;;;;9.93;5.00;;;18.20;95.90;;;;;;5114297;28;20042;-87
2023/06/05 09:05:47;;;;;;;9.45;5.20;;;18.20;95.30;;;;;;5114260;28;20500;-86
2023/06/05 09:08:14;;;;;;;10.43;5.25;;;18.30;95.20;;;;;;5132707;28;20124;-86
2023/06/05 09:10:39;;;;;;;9.63;5.25;;;18.50;94.50;;;;;;5132160;28;20054;-86
2023/06/05 09:13:05;;;;;;;10.27;4.90;;;18.50;93.80;;;;;;5114107;28;20591;-86
2023/06/05 09:15:33;;;;;;;10.30;5.03;;;18.60;93.10;;;;;;5114138;28;20084;-86
2023/06/05 09:18:08;;;;;;;9.55;4.70;;;18.60;92.60;;;;;;5105062;28;20052;-86
2023/06/05 09:20:38;;;;;;;9.07;4.43;;;18.70;92.90;;;;;;5099439;28;20039;-86
2023/06/05 09:23:24;;;;;;;8.13;4.72;;;18.80;92.30;;;;;;5103034;28;20042;-86
2023/06/05 09:25:50;;;;;;;10.52;4.75;;;18.80;91.60;;;;;;5104014;28;20039;-86
2023/06/05 09:28:16;;;;;;;9.43;4.63;;;18.90;91.50;;;;;;5102608;28;20035;-86
2023/06/05 09:31:02;;;;;;;8.10;4.75;;;19.00;91.20;;;;;;5104960;28;20036;-86
2023/06/05 09:33:30;;;;;;;11.02;4.65;;;19.10;91.20;;;;;;5105100;27;20032;-86
2023/06/05 09:36:11;;;;;;;12.38;4.40;;;19.10;90.70;;;;;;5122362;27;20094;-86
2023/06/05 09:38:41;;;;;;;9.07;5.32;;;19.30;90.70;;;;;;5122770;27;20096;-86
2023/06/05 09:41:20;;;;;;;9.75;5.00;;;19.30;90.20;;;;;;5106398;27;20427;-85
2023/06/05 09:43:46;;;;;;;8.48;4.95;;;19.40;90.00;;;;;;5087797;28;20065;-85
2023/06/05 09:46:14;;;;;;;8.82;4.03;;;19.50;89.40;;;;;;5097760;28;20055;-85
2023/06/05 09:48:43;;;;;;;9.13;4.22;;;19.60;89.10;;;;;;5097552;28;20106;-85
2023/06/05 09:51:14;;;;;;;9.18;3.92;;;19.60;88.90;;;;;;5097365;28;20377;-85
2023/06/05 09:53:43;;;;;;;9.73;4.30;;;19.80;88.00;;;;;;5097524;28;20043;-85
2023/06/05 09:56:14;;;;;;;9.27;4.25;;;19.90;87.00;;;;;;5094441;28;20508;-85
2023/06/05 09:58:45;;;;;;;8.38;4.60;;;19.90;86.00;;;;;;5096134;28;20127;-85
2023/06/05 10:01:17;;;;;;;9.60;4.20;;;20.00;84.10;;;;;;5079313;28;20389;-85
2023/06/05 10:03:47;;;;;;;9.90;3.75;;;20.00;84.20;;;;;;5114760;28;20040;-85
2023/06/05 10:06:16;;;;;;;10.15;4.30;;;20.10;83.70;;;;;;5114276;27;20088;-85
2023/06/05 10:08:42;;;;;;;10.07;4.05;;;20.10;82.50;;;;;;5116726;27;20047;-85
2023/06/05 10:11:10;;;;;;;8.13;4.20;;;20.20;81.80;;;;;;5115435;27;20043;-85
2023/06/05 10:13:36;;;;;;;7.78;3.95;;;20.30;82.10;;;;;;5104134;27;20390;-85
2023/06/05 10:16:02;;;;;;;7.80;3.30;;;20.30;82.50;;;;;;5104829;27;20050;-85
2023/06/05 10:18:28;;;;;;;9.73;5.28;;;20.50;82.70;;;;;;5112791;27;20394;-85
2023/06/05 10:20:54;;;;;;;10.07;4.22;;;20.50;82.20;;;;;;5099107;27;20487;-85
2023/06/05 10:23:20;;;;;;;6.90;3.50;;;20.70;81.60;;;;;;5134782;27;20416;-85
2023/06/05 10:25:47;;;;;;;9.32;4.70;;;20.80;81.50;;;;;;5134899;27;20408;-85
2023/06/05 10:28:25;;;;;;;10.35;5.05;;;20.90;80.60;;;;;;5116646;27;20039;-85
2023/06/05 10:31:18;;;;;;;11.40;6.75;;;21.00;79.90;;;;;;5116048;27;20039;-86
2023/06/05 10:33:52;;;;;;;9.93;4.20;;;21.10;78.90;;;;;;5116797;27;20063;-85
2023/06/05 10:36:40;;;;;;;9.73;4.50;;;21.10;77.90;;;;;;5133658;27;20054;-85
2023/06/05 10:39:15;;;;;;;10.18;3.92;;;21.20;77.70;;;;;;5116135;27;20039;-85
2023/06/05 10:41:41;;;;;;;10.48;3.60;;;21.30;77.00;;;;;;5116507;27;20050;-86
2023/06/05 10:44:06;;;;;;;8.55;4.00;;;21.40;77.00;;;;;;5116495;27;20035;-85
2023/06/05 10:46:34;;;;;;;8.38;3.78;;;21.50;76.70;;;;;;5117009;27;20102;-85
2023/06/05 10:49:17;;;;;;;7.93;3.70;;;21.60;75.80;;;;;;5116690;27;20525;-85
2023/06/05 10:51:46;;;;;;;9.65;3.90;;;21.70;75.20;;;;;;5116473;27;20584;-86
2023/06/05 10:54:24;;;;;;;7.90;3.22;;;21.80;74.70;;;;;;5116496;27;20043;-85
2023/06/05 10:57:05;;;;;;;7.72;3.38;;;21.90;74.60;;;;;;5116535;27;20039;-86
2023/06/05 10:59:39;;;;;;;7.70;3.83;;;22.00;75.30;;;;;;5116330;27;20454;-85
2023/06/05 11:02:25;;;;;;;7.15;3.38;;;22.00;73.40;;;;;;5135022;27;20083;-86
2023/06/05 11:04:55;;;;;;;7.28;3.45;;;22.10;72.90;;;;;;5116140;27;20108;-86
2023/06/05 11:07:23;;;;;;;6.53;2.88;;;22.20;72.60;;;;;;5099443;27;20086;-86
2023/06/05 11:10:23;;;;;;;7.40;3.38;;;22.30;71.60;;;;;;5099422;27;20039;-86
2023/06/05 11:12:51;;;;;;;8.50;3.70;;;22.40;71.20;;;;;;5116405;27;20538;-86
2023/06/05 11:15:34;;;;;;;9.02;3.53;;;22.40;70.80;;;;;;5134790;27;20507;-86
2023/06/05 11:18:26;;;;;;;7.30;2.90;;;22.50;70.70;;;;;;5116252;27;20058;-86
2023/06/05 11:20:52;;;;;;;6.97;3.08;;;22.70;70.40;;;;;;5134286;27;20046;-85
2023/06/05 11:23:18;;;;;;;7.32;3.47;;;22.70;70.50;;;;;;5133794;27;20031;-85
2023/06/05 11:25:44;;;;;;;7.22;2.88;;;22.90;70.40;;;;;;5116348;27;20427;-86
2023/06/05 11:28:11;;;;;;;7.78;3.70;;;23.00;70.20;;;;;;5098898;27;20381;-85
2023/06/05 11:30:42;;;;;;;8.18;3.78;;;23.10;69.70;;;;;;5115626;27;20035;-86
2023/06/05 11:33:16;;;;;;;11.02;5.28;;;23.20;69.00;;;;;;5116072;27;20046;-86
2023/06/05 11:35:44;;;;;;;6.05;2.63;;;23.30;68.10;;;;;;5134133;27;20039;-86
2023/06/05 11:38:12;;;;;;;8.75;3.20;;;23.40;67.40;;;;;;5134163;27;20125;-86
2023/06/05 11:40:40;;;;;;;6.93;3.33;;;23.50;67.60;;;;;;5128592;27;20081;-86
2023/06/05 11:43:08;;;;;;;8.20;3.03;;;23.60;68.00;;;;;;5097919;28;20100;-86
2023/06/05 11:45:35;;;;;;;6.25;3.03;;;23.70;67.80;;;;;;5095343;28;20063;-86
2023/06/05 11:48:29;;;;;;;8.02;3.60;;;23.80;67.40;;;;;;5095284;28;20555;-85
2023/06/05 11:51:05;;;;;;;6.50;2.90;;;23.90;66.80;;;;;;5109741;28;20444;-87
2023/06/05 11:53:32;;;;;;;5.72;2.60;;;24.00;65.50;;;;;;5095158;28;20404;-87
2023/06/05 11:58:35;;;;;;;8.38;2.97;;;24.20;65.20;;;;;;5095141;28;20543;-87
2023/06/05 12:01:17;;;;;;;6.80;2.70;;;24.40;65.00;;;;;;5111765;28;20070;-87
2023/06/05 12:03:44;;;;;;;6.20;2.70;;;24.40;65.30;;;;;;5094850;28;20043;-87
2023/06/05 12:06:12;;;;;;;7.47;3.10;;;24.50;63.70;;;;;;5094732;28;20096;-87
2023/06/05 12:08:39;;;;;;;8.32;3.00;;;24.50;63.10;;;;;;5094758;28;20048;-87
2023/06/05 12:11:21;;;;;;;6.68;3.03;;;24.50;63.40;;;;;;5092715;28;20043;-87
2023/06/05 12:13:47;;;;;;;6.15;2.90;;;24.60;63.80;;;;;;5094384;28;20051;-87
2023/06/05 12:16:13;;;;;;;6.43;2.83;;;24.70;63.70;;;;;;5094232;28;20673;-87
2023/06/05 12:18:39;;;;;;;8.85;3.40;;;24.80;63.10;;;;;;5094144;28;20044;-87
2023/06/05 12:21:06;;;;;;;10.15;5.90;;;25.00;63.00;;;;;;5099161;27;20435;-87
2023/06/05 12:23:32;;;;;;;8.55;3.42;;;25.10;62.50;;;;;;5123177;27;20464;-87
2023/06/05 12:26:04;;;;;;;7.40;2.88;;;25.20;61.90;;;;;;5086576;27;20050;-87
2023/06/05 12:28:31;;;;;;;8.20;2.90;;;25.20;61.70;;;;;;5121792;27;20054;-87
2023/06/05 12:30:57;;;;;;;6.55;2.75;;;25.30;61.10;;;;;;5092454;28;20043;-88
2023/06/05 12:33:24;;;;;;;7.30;2.95;;;25.30;61.30;;;;;;5074270;28;20448;-88
2023/06/05 12:36:22;;;;;;;6.78;2.80;;;25.40;61.00;;;;;;5074142;28;20043;-88
2023/06/05 12:38:48;;;;;;;6.90;2.60;;;25.50;60.70;;;;;;5009966;28;20048;-88
2023/06/05 12:41:13;;;;;;;6.85;2.65;;;25.50;60.40;;;;;;4993364;28;20038;-88
2023/06/05 12:43:39;;;;;;;6.93;2.55;;;25.60;60.40;;;;;;4993624;28;20076;-88
2023/06/05 12:46:07;;;;;;;6.55;2.50;;;25.70;60.60;;;;;;4993660;28;20046;-88
2023/06/05 12:48:33;;;;;;;7.80;2.70;;;25.80;59.80;;;;;;4993027;28;20062;-88